• Join FlightAware (Why Join?)
  • Login
  • US Flag 
07:32AM EST


 

Airport Tracker/Info


-or-


 

Live Flight TrackerFlight Track Log ✈ N589H ✈ 10-Apr-2014 ✈ CYOO - KCLT

Flight Track Log - Related Links

Times and Time Zones

All times are in EDT time to prevent confusion due to time zone crossing. See the N589H flight status page for this flight to view local times or setup timezone preferences in your user account.

Time Position Orientation Groundspeed Altitude Reporting Facility
EDT Latitude Longitude Course Direction KTS MPH feet Rate Location/Type
03:49PM 43.9406 -78.9461 190° South 211 243 2,100  Level Cleveland Center
03:50PM 43.9333 -78.9833 255° West 150 173 4,000 1,620 Climbing Toronto Center
03:51PM 43.8833 -78.9333 144° Southeast 170 196 5,500 1,320 Climbing Toronto Center
03:52PM 43.8333 -78.9167 166° South 210 242 6,700 1,380 Climbing Toronto Center
03:53PM 43.7667 -78.9000 170° South 220 253 8,300 1,500 Climbing Toronto Center
03:55PM 43.8674 -78.9084 190° South  Level FlightAware Approximate
03:55PM 43.6500 -78.8500 163° South 230 265 11,300  Level Toronto Center
03:56PM 43.5833 -78.8333 170° South 240 276 12,900 1,680 Climbing Toronto Center
03:57PM 43.5167 -78.8000 160° South 250 288 14,700 1,680 Climbing Toronto Center
03:58PM 43.4500 -78.7833 170° South 260 299 16,300 1,680 Climbing Toronto Center
04:00PM 43.3683 -78.7847 181° South 265 305 18,600 1,980 Climbing Cleveland Center
04:01PM 43.2853 -78.7586 167° South 260 299 21,000 1,920 Climbing Cleveland Center
04:02PM 43.2181 -78.7383 168° South 252 290 22,600 1,380 Climbing Cleveland Center
04:03PM 43.1469 -78.7161 167° South 261 300 23,900 1,200 Climbing Cleveland Center
04:04PM 43.0700 -78.6933 168° South 280 322 25,200 1,320 Climbing Cleveland Center
04:05PM 42.9950 -78.6686 166° South 280 322 26,700 1,320 Climbing Cleveland Center
04:06PM 42.9083 -78.6611 176° South 267 307 28,000 600 Climbing Cleveland Center
04:07PM 42.8372 -78.7000 202° Southwest 280 322 28,000  Level Cleveland Center
04:08PM 42.7561 -78.7383 199° South 305 351 28,000  Level Cleveland Center
04:10PM 42.5333 -78.8167 195° South 330 380 28,000  Level Toronto Center
04:11PM 42.4786 -78.8658 214° Southwest 332 382 28,000  Level Cleveland Center
04:12PM 42.3933 -78.9042 198° South 342 394 28,000  Level Cleveland Center
04:14PM 42.1833 -78.9833 196° South 340 391 28,000  Level Toronto Center
04:15PM 42.1050 -79.0267 202° Southwest 342 394 28,000  Level Cleveland Center
04:16PM 42.0106 -79.0608 195° South 350 403 28,000  Level Cleveland Center
04:17PM 41.9100 -79.0958 195° South 351 404 28,000  Level Cleveland Center
04:18PM 41.8150 -79.1278 194° South 352 405 28,000  Level Cleveland Center
04:19PM 41.7200 -79.1617 195° South 353 406 28,000  Level Cleveland Center
04:20PM 41.6119 -79.2006 195° South 364 419 28,000  Level Cleveland Center
04:21PM 41.5164 -79.2339 195° South 362 417 28,000  Level Cleveland Center
04:22PM 41.4225 -79.2650 194° South 357 411 28,000  Level Cleveland Center
04:24PM 41.3233 -79.3025 196° South 369 425 28,000  Level Cleveland Center
04:25PM 41.2269 -79.3353 194° South 364 419 28,000  Level Cleveland Center
04:26PM 41.1100 -79.3747 194° South 361 415 28,000  Level Cleveland Center
04:27PM 41.0119 -79.4072 194° South 361 415 28,000  Level Cleveland Center
04:28PM 40.9139 -79.4414 195° South 362 417 28,000  Level Cleveland Center
04:29PM 40.8156 -79.4747 194° South 362 417 28,000  Level Cleveland Center
04:30PM 40.7161 -79.5092 195° South 367 422 28,000  Level Cleveland Center
04:31PM 40.6169 -79.5422 194° South 367 422 28,000  Level Cleveland Center
04:32PM 40.4983 -79.5822 194° South 367 422 28,000  Level Cleveland Center
04:33PM 40.3997 -79.6158 195° South 364 419 28,000  Level Cleveland Center
04:34PM 40.3008 -79.6478 194° South 365 420 28,000  Level Cleveland Center
04:35PM 40.2011 -79.6803 194° South 366 421 28,000  Level Cleveland Center
04:38PM 39.9053 -79.7792 193° South 365 420 28,000  Level Cleveland Center
04:39PM 39.7853 -79.8186 194° South 366 421 28,000  Level Cleveland Center
04:40PM 39.6861 -79.8514 194° South 367 422 28,000  Level Cleveland Center
04:41PM 39.5875 -79.8819 193° South 367 422 28,000  Level Cleveland Center
04:43PM 39.4269 -79.9361 195° South 364 419 28,000  Level Washington Center
04:44PM 39.2931 -79.9772 193° South 364 419 28,000  Level Cleveland Center
04:45PM 39.1753 -80.0153 194° South 364 419 28,000  Level Cleveland Center
04:46PM 39.0756 -80.0406 191° South 364 419 28,000  Level Cleveland Center
04:47PM 39.0350 -80.0544 195° South 364 419 28,000  Level Washington Center
04:49PM 38.8158 -80.1131 192° South 371 427 28,000  Level Washington Center
04:50PM 38.6736 -80.1397 188° South 368 423 28,000  Level Cleveland Center
04:52PM 38.4519 -80.1950 189° South 369 425 28,000  Level Cleveland Center
04:54PM 38.3508 -80.2208 191° South 369 425 28,000  Level Cleveland Center
04:55PM 38.2511 -80.2444 191° South 368 423 28,000 -120 Level Cleveland Center
04:59PM 37.8222 -80.3528 195° South 372 428 27,600 -480 Descending Washington Center
05:00PM 37.7233 -80.3756 190° South 372 428 25,700 -1,800 Descending Washington Center
05:01PM 37.6306 -80.3986 191° South 360 414 24,000 -480 Descending Washington Center
05:04PM 37.4893 -80.4091 195° South  Level FlightAware Approximate
05:04PM 37.3447 -80.4625 190° South 348 400 24,000  Level Atlanta Center
05:06PM 37.1522 -80.5078 187° South 353 406 24,000 -60 Level Atlanta Center
05:07PM 37.0467 -80.5333 191° South 353 406 23,900 -1,020 Descending Atlanta Center
05:10PM 36.7703 -80.5689 178° South 337 388 20,000 -1,020 Descending Atlanta Center
05:11PM 36.6911 -80.5697 180° South 322 371 20,000  Level Atlanta Center
05:12PM 36.6033 -80.5606 175° South 322 371 20,000 -540 Level Atlanta Center
05:14PM 36.4197 -80.5556 179° South 328 377 18,500 -840 Descending Atlanta Center
05:15PM 36.3175 -80.5497 177° South 328 377 17,500 -1,080 Descending Atlanta Center
05:16PM 36.2275 -80.5433 177° South 328 377 16,400 -1,080 Descending Atlanta Center
05:17PM 36.1378 -80.5394 178° South 328 377 15,400 -1,080 Descending Atlanta Center
05:19PM 35.9664 -80.5317 178° South 328 377 13,300 -840 Descending Atlanta Center
05:20PM 35.8706 -80.5306 179° South 323 372 13,000 -240 Descending Atlanta Center
05:21PM 35.7703 -80.5297 180° South 310 357 12,800 -960 Descending Atlanta Center
05:22PM 35.7114 -80.5886 219° Southwest 294 338 11,100 -1,020 Descending Atlanta Center
05:23PM 35.6586 -80.6419 219° Southwest 281 323 11,000 -120 Descending Atlanta Center
05:23PM 35.6486 -80.6578 232° Southwest 277 319 11,000 -1,200 Level Atlanta Center
05:24PM 35.6000 -80.7083 220° Southwest 281 323 9,800 -1,800 Descending Atlanta Center
05:24PM 35.5858 -80.7267 226° Southwest 279 321 9,200 -1,920 Descending Atlanta Center
05:25PM 35.5353 -80.7822 222° Southwest 294 338 7,600 -1,920 Descending Atlanta Center
05:26PM 35.4867 -80.8403 224° Southwest 287 330 5,800 -1,980 Descending Atlanta Center
05:27PM 35.4169 -80.8864 208° Southwest 253 291 3,700 -1,500 Descending Atlanta Center
05:28PM 35.3633 -80.9114 201° Southwest 251 289 2,800 -780 Descending Atlanta Center
05:29PM 35.2953 -80.9419 200° South 176 203 2,100 -600 Descending Atlanta Center
05:31PM 35.2137 -80.9491 202° Southwest  Level Estimated
05:38PM 35.2137 -80.9491 202° Southwest  Level Estimated
05:39PM 35.2137 -80.9491 202° Southwest  Level Estimated
05:40PM 35.2137 -80.9491 202° Southwest  Level Estimated